createdAt,value
2022-07-27T00:00:25.455Z,59.48
2022-07-27T00:01:09.571Z,59.34
2022-07-27T00:01:50.818Z,58.85
2022-07-27T00:02:24.777Z,58.82
2022-07-27T00:02:57.876Z,59.20
2022-07-27T00:03:30.971Z,59.73
2022-07-27T00:04:04.211Z,60.33
2022-07-27T00:04:37.439Z,60.94
2022-07-27T00:05:11.674Z,61.50
2022-07-27T00:05:45.121Z,62.11
2022-07-27T00:06:18.341Z,62.72
2022-07-27T00:06:51.786Z,63.38
2022-07-27T00:07:24.888Z,63.58
2022-07-27T00:07:58.052Z,63.36
2022-07-27T00:08:31.244Z,62.94
2022-07-27T00:09:04.696Z,62.40
2022-07-27T00:09:37.818Z,61.78
2022-07-27T00:10:10.999Z,61.27
2022-07-27T00:10:44.086Z,60.76
2022-07-27T00:11:17.279Z,60.26
2022-07-27T00:11:50.749Z,59.87
2022-07-27T00:12:23.800Z,59.59
2022-07-27T00:12:57.297Z,59.19
2022-07-27T00:13:30.531Z,58.81
2022-07-27T00:14:03.836Z,58.72
2022-07-27T00:14:37.731Z,58.89
2022-07-27T00:15:11.712Z,59.35
2022-07-27T00:15:44.933Z,59.97
2022-07-27T00:16:18.165Z,60.59
2022-07-27T00:16:51.549Z,61.23
2022-07-27T00:17:25.974Z,61.72
2022-07-27T00:18:01.335Z,62.36
2022-07-27T00:18:34.665Z,62.94
2022-07-27T00:19:09.405Z,63.46
2022-07-27T00:19:42.836Z,63.52
2022-07-27T00:20:16.103Z,63.17
2022-07-27T00:20:49.242Z,62.74
2022-07-27T00:21:22.382Z,61.99
2022-07-27T00:21:55.584Z,61.42
2022-07-27T00:22:28.824Z,60.88
2022-07-27T00:23:02.526Z,60.36
2022-07-27T00:23:35.750Z,59.89
2022-07-27T00:24:09.073Z,59.37
2022-07-27T00:24:42.419Z,58.80
2022-07-27T00:25:16.448Z,58.58
2022-07-27T00:25:50.096Z,58.78
2022-07-27T00:26:23.186Z,59.18
2022-07-27T00:26:56.369Z,59.72
2022-07-27T00:27:29.495Z,60.22
2022-07-27T00:28:03.208Z,60.84
2022-07-27T00:28:36.325Z,61.48
2022-07-27T00:29:09.758Z,62.00
2022-07-27T00:29:43.465Z,62.58
2022-07-27T00:30:17.046Z,63.22
2022-07-27T00:30:50.378Z,63.49
2022-07-27T00:31:23.608Z,63.32
2022-07-27T00:31:56.913Z,62.87
2022-07-27T00:32:32.733Z,62.45
2022-07-27T00:33:06.334Z,61.79
2022-07-27T00:33:39.519Z,61.27
2022-07-27T00:34:12.585Z,60.85
2022-07-27T00:34:45.715Z,60.25
2022-07-27T00:35:19.451Z,59.79
2022-07-27T00:35:52.549Z,59.39
2022-07-27T00:36:25.750Z,58.91
2022-07-27T00:36:59.311Z,58.77
2022-07-27T00:37:32.351Z,58.88
2022-07-27T00:38:05.476Z,59.29
2022-07-27T00:38:39.028Z,59.83
2022-07-27T00:39:12.531Z,60.41
2022-07-27T00:39:46.171Z,60.93
2022-07-27T00:40:19.332Z,61.54
2022-07-27T00:40:52.372Z,62.05
2022-07-27T00:41:25.577Z,62.66
2022-07-27T00:41:59.173Z,63.26
2022-07-27T00:42:32.476Z,63.44
2022-07-27T00:43:05.607Z,63.50
2022-07-27T00:43:59.835Z,63.16
2022-07-27T00:44:33.319Z,62.90
2022-07-27T00:45:07.035Z,61.83
2022-07-27T00:45:40.146Z,61.28
2022-07-27T00:46:13.479Z,60.74
2022-07-27T00:46:46.655Z,60.46
2022-07-27T00:47:19.878Z,60.15
2022-07-27T00:47:55.074Z,59.77
2022-07-27T00:48:29.378Z,59.51
2022-07-27T00:49:02.896Z,59.12
2022-07-27T00:49:36.130Z,58.77
2022-07-27T00:50:09.961Z,58.80
2022-07-27T00:50:44.048Z,59.06
2022-07-27T00:51:20.826Z,59.56
2022-07-27T00:51:55.465Z,60.13
2022-07-27T00:52:30.297Z,60.72
2022-07-27T00:53:05.258Z,61.36
2022-07-27T00:53:38.898Z,61.96
2022-07-27T00:54:12.475Z,62.58
2022-07-27T00:54:45.981Z,63.15
2022-07-27T00:55:19.856Z,63.53
2022-07-27T00:55:53.712Z,63.45
2022-07-27T00:56:26.714Z,63.29
2022-07-27T00:56:59.837Z,62.75
2022-07-27T00:57:33.615Z,62.32
2022-07-27T00:58:27.814Z,61.99
2022-07-27T00:59:01.041Z,61.34
2022-07-27T00:59:34.151Z,61.18
2022-07-27T01:00:08.632Z,60.89
2022-07-27T01:00:41.806Z,60.73
2022-07-27T01:01:15.838Z,60.44
2022-07-27T01:01:49.284Z,60.40
2022-07-27T01:02:23.617Z,60.17
2022-07-27T01:02:57.378Z,59.89
2022-07-27T01:03:31.312Z,59.62
2022-07-27T01:04:05.339Z,59.14
2022-07-27T01:04:38.560Z,58.84
2022-07-27T01:05:12.857Z,58.98
2022-07-27T01:05:47.578Z,59.25
2022-07-27T01:06:27.053Z,59.68
2022-07-27T01:07:02.907Z,60.21
2022-07-27T01:07:36.056Z,60.94
2022-07-27T01:08:12.416Z,61.61
2022-07-27T01:08:45.885Z,62.13
2022-07-27T01:09:37.599Z,62.81
2022-07-27T01:10:10.752Z,63.42
2022-07-27T01:10:44.890Z,63.61
2022-07-27T01:11:18.087Z,63.25
2022-07-27T01:11:51.150Z,63.06
2022-07-27T01:12:29.772Z,62.56
2022-07-27T01:13:03.046Z,62.28
2022-07-27T01:13:37.247Z,61.76
2022-07-27T01:14:13.928Z,61.33
2022-07-27T01:14:48.759Z,60.89
2022-07-27T01:15:22.089Z,60.34
2022-07-27T01:15:56.202Z,59.92
2022-07-27T01:16:29.477Z,59.42
2022-07-27T01:17:02.663Z,58.83
2022-07-27T01:17:35.952Z,58.45
2022-07-27T01:18:13.684Z,58.51
2022-07-27T01:18:46.782Z,58.84
2022-07-27T01:19:20.001Z,59.40
2022-07-27T01:19:53.761Z,60.02
2022-07-27T01:20:26.860Z,60.65
2022-07-27T01:21:02.043Z,61.20
2022-07-27T01:21:35.919Z,61.67
2022-07-27T01:22:09.229Z,62.34
2022-07-27T01:22:42.302Z,62.92
2022-07-27T01:23:15.750Z,63.48
2022-07-27T01:23:48.922Z,63.80
2022-07-27T01:24:22.068Z,63.71
2022-07-27T01:24:55.245Z,63.48
2022-07-27T01:25:28.305Z,63.14
2022-07-27T01:26:02.855Z,62.70
2022-07-27T01:26:38.023Z,62.17
2022-07-27T01:27:11.247Z,61.66
2022-07-27T01:27:44.263Z,61.20
2022-07-27T01:28:17.442Z,60.87
2022-07-27T01:28:50.558Z,60.49
2022-07-27T01:29:23.665Z,60.06
2022-07-27T01:29:56.815Z,59.91
2022-07-27T01:30:30.803Z,59.55
2022-07-27T01:31:03.907Z,59.11
2022-07-27T01:31:37.225Z,58.74
2022-07-27T01:32:10.545Z,58.52
2022-07-27T01:32:43.807Z,58.93
2022-07-27T01:33:17.028Z,59.46
2022-07-27T01:33:50.611Z,60.08
2022-07-27T01:34:23.731Z,60.65
2022-07-27T01:34:56.933Z,61.29
2022-07-27T01:35:30.285Z,61.96
2022-07-27T01:36:03.661Z,62.59
2022-07-27T01:36:36.914Z,63.31
2022-07-27T01:37:10.374Z,63.62
2022-07-27T01:37:48.254Z,63.52
2022-07-27T01:38:21.816Z,63.43
2022-07-27T01:38:54.839Z,62.93
2022-07-27T01:39:28.565Z,62.60
2022-07-27T01:40:02.808Z,62.08
2022-07-27T01:40:37.260Z,61.56
2022-07-27T01:41:10.235Z,61.28
2022-07-27T01:41:43.930Z,60.69
2022-07-27T01:42:17.173Z,60.21
2022-07-27T01:42:50.904Z,59.93
2022-07-27T01:43:24.222Z,59.64
2022-07-27T01:43:57.379Z,59.29
2022-07-27T01:44:30.583Z,58.93
2022-07-27T01:45:03.927Z,58.92
2022-07-27T01:45:37.071Z,59.22
2022-07-27T01:46:10.165Z,59.76
2022-07-27T01:46:43.370Z,60.33
2022-07-27T01:47:16.501Z,60.92
2022-07-27T01:47:49.688Z,61.54
2022-07-27T01:48:22.979Z,62.15
2022-07-27T01:48:56.127Z,62.76
2022-07-27T01:49:29.262Z,63.45
2022-07-27T01:50:02.476Z,63.72
2022-07-27T01:50:35.462Z,63.65
2022-07-27T01:51:08.498Z,63.24
2022-07-27T01:51:41.615Z,62.79
2022-07-27T01:52:14.751Z,62.42
2022-07-27T01:52:48.050Z,62.01
2022-07-27T01:53:22.364Z,61.60
2022-07-27T01:53:55.632Z,61.23
2022-07-27T01:54:28.659Z,60.90
2022-07-27T01:55:01.666Z,60.57
2022-07-27T01:55:38.386Z,60.32
2022-07-27T01:56:13.516Z,60.29
2022-07-27T01:56:46.643Z,60.07
2022-07-27T01:57:21.431Z,59.97
2022-07-27T01:57:54.634Z,59.67
2022-07-27T01:58:27.657Z,59.29
2022-07-27T01:59:00.740Z,59.15
2022-07-27T01:59:33.832Z,59.13
2022-07-27T02:00:11.342Z,59.36
2022-07-27T02:00:44.829Z,59.84
2022-07-27T02:01:17.939Z,60.37
2022-07-27T02:01:51.150Z,60.96
2022-07-27T02:02:24.281Z,61.62
2022-07-27T02:02:57.414Z,62.28
2022-07-27T02:03:30.624Z,62.91
2022-07-27T02:04:03.812Z,63.62
2022-07-27T02:04:36.909Z,63.81
2022-07-27T02:05:12.312Z,63.75
2022-07-27T02:05:45.658Z,63.47
2022-07-27T02:06:18.966Z,63.10
2022-07-27T02:06:52.091Z,62.80
2022-07-27T02:07:25.025Z,62.48
2022-07-27T02:07:58.219Z,62.16
2022-07-27T02:08:31.780Z,61.78
2022-07-27T02:09:04.953Z,61.50
2022-07-27T02:09:38.262Z,61.30
2022-07-27T02:10:11.356Z,61.14
2022-07-27T02:11:03.024Z,60.95
2022-07-27T02:11:54.657Z,61.11
2022-07-27T02:12:36.879Z,60.84
2022-07-27T02:13:21.973Z,60.57
2022-07-27T02:13:56.391Z,60.44
2022-07-27T02:14:29.523Z,60.00
2022-07-27T02:15:25.167Z,59.83
2022-07-27T02:15:58.820Z,60.05
2022-07-27T02:16:32.492Z,59.54
2022-07-27T02:17:05.733Z,59.22
2022-07-27T02:17:40.594Z,59.21
2022-07-27T02:18:33.526Z,59.44
2022-07-27T02:19:08.890Z,59.62
2022-07-27T02:19:44.274Z,60.63
2022-07-27T02:20:19.996Z,61.37
2022-07-27T02:20:53.157Z,61.95
2022-07-27T02:21:26.495Z,62.49
2022-07-27T02:21:59.639Z,62.99
2022-07-27T02:22:33.935Z,63.51
2022-07-27T02:23:06.986Z,63.70
2022-07-27T02:23:40.978Z,63.62
2022-07-27T02:24:14.017Z,63.37
2022-07-27T02:24:47.215Z,62.97
2022-07-27T02:25:20.826Z,62.52
2022-07-27T02:25:54.314Z,62.01
2022-07-27T02:26:27.900Z,61.61
2022-07-27T02:27:01.062Z,61.12
2022-07-27T02:27:34.398Z,60.79
2022-07-27T02:28:07.820Z,60.38
2022-07-27T02:28:40.942Z,60.04
2022-07-27T02:29:14.513Z,59.81
2022-07-27T02:29:47.916Z,59.58
2022-07-27T02:30:20.962Z,59.32
2022-07-27T02:30:54.115Z,59.07
2022-07-27T02:31:27.178Z,59.10
2022-07-27T02:32:06.691Z,59.36
2022-07-27T02:32:44.272Z,59.95
2022-07-27T02:33:17.988Z,60.29
2022-07-27T02:33:51.233Z,61.16
2022-07-27T02:34:24.223Z,61.78
2022-07-27T02:34:57.380Z,62.44
2022-07-27T02:35:30.603Z,63.04
2022-07-27T02:36:04.274Z,63.71
2022-07-27T02:36:37.376Z,63.85
2022-07-27T02:37:10.692Z,63.77
2022-07-27T02:37:43.825Z,63.46
2022-07-27T02:38:17.068Z,62.86
2022-07-27T02:38:50.135Z,62.33
2022-07-27T02:39:23.250Z,61.83
2022-07-27T02:39:56.570Z,61.33
2022-07-27T02:40:29.629Z,60.68
2022-07-27T02:41:02.753Z,60.36
2022-07-27T02:41:37.253Z,60.10
2022-07-27T02:42:10.262Z,59.66
2022-07-27T02:42:43.778Z,59.21
2022-07-27T02:43:16.780Z,58.73
2022-07-27T02:43:49.997Z,58.72
2022-07-27T02:44:23.080Z,59.03
2022-07-27T02:44:56.262Z,59.54
2022-07-27T02:45:29.472Z,60.17
2022-07-27T02:46:02.546Z,60.88
2022-07-27T02:46:35.793Z,61.48
2022-07-27T02:47:08.940Z,62.01
2022-07-27T02:47:42.909Z,62.71
2022-07-27T02:48:15.963Z,63.47
2022-07-27T02:48:49.016Z,63.87
2022-07-27T02:49:22.108Z,63.98
2022-07-27T02:49:55.237Z,63.68
2022-07-27T02:50:28.386Z,63.23
2022-07-27T02:51:02.180Z,62.74
2022-07-27T02:51:36.382Z,62.31
2022-07-27T02:52:12.699Z,61.93
2022-07-27T02:52:45.923Z,61.43
2022-07-27T02:53:19.137Z,61.11
2022-07-27T02:53:52.207Z,60.63
2022-07-27T02:54:25.728Z,60.31
2022-07-27T02:54:59.282Z,60.01
2022-07-27T02:55:32.373Z,59.64
2022-07-27T02:56:05.883Z,59.49
2022-07-27T02:56:39.023Z,59.33
2022-07-27T02:57:12.054Z,59.22
2022-07-27T02:57:45.150Z,59.41
2022-07-27T02:58:18.209Z,59.76
2022-07-27T02:58:51.674Z,60.32
2022-07-27T02:59:24.721Z,60.86
2022-07-27T02:59:57.890Z,61.51
2022-07-27T03:00:31.169Z,62.03
2022-07-27T03:01:05.511Z,62.66
2022-07-27T03:01:40.288Z,63.41
2022-07-27T03:02:13.446Z,63.71
2022-07-27T03:02:50.454Z,63.80
2022-07-27T03:03:23.691Z,63.62
2022-07-27T03:04:09.334Z,63.37
2022-07-27T03:04:42.558Z,62.84
2022-07-27T03:05:15.974Z,62.59
2022-07-27T03:05:50.102Z,62.26
2022-07-27T03:06:23.162Z,61.79
2022-07-27T03:06:56.344Z,61.33
2022-07-27T03:07:29.957Z,60.95
2022-07-27T03:08:04.360Z,60.68
2022-07-27T03:08:38.088Z,60.40
2022-07-27T03:09:11.383Z,59.92
2022-07-27T03:09:48.150Z,59.57
2022-07-27T03:10:23.931Z,59.33
2022-07-27T03:10:57.080Z,58.97
2022-07-27T03:11:30.753Z,58.95
2022-07-27T03:12:04.163Z,59.40
2022-07-27T03:12:37.317Z,59.97
2022-07-27T03:13:10.428Z,60.59
2022-07-27T03:13:43.473Z,61.09
2022-07-27T03:14:16.471Z,61.75
2022-07-27T03:14:49.756Z,62.37
2022-07-27T03:15:22.962Z,63.13
2022-07-27T03:15:57.612Z,63.69
2022-07-27T03:16:30.878Z,63.98
2022-07-27T03:17:04.120Z,63.96
2022-07-27T03:17:37.162Z,63.64
2022-07-27T03:18:10.224Z,63.32
2022-07-27T03:18:43.274Z,62.84
2022-07-27T03:19:16.317Z,62.30
2022-07-27T03:19:50.263Z,61.95
2022-07-27T03:20:23.351Z,61.65
2022-07-27T03:20:56.400Z,61.21
2022-07-27T03:21:29.629Z,60.89
2022-07-27T03:22:02.741Z,60.54
2022-07-27T03:22:35.879Z,60.20
2022-07-27T03:23:08.957Z,59.86
2022-07-27T03:23:42.046Z,59.54
2022-07-27T03:24:15.148Z,59.10
2022-07-27T03:24:48.643Z,58.76
2022-07-27T03:25:21.833Z,58.72
2022-07-27T03:25:54.962Z,59.17
2022-07-27T03:26:30.828Z,59.72
2022-07-27T03:27:04.087Z,60.27
2022-07-27T03:27:37.189Z,60.84
2022-07-27T03:28:10.227Z,61.52
2022-07-27T03:28:43.439Z,62.17
2022-07-27T03:29:16.535Z,62.83
2022-07-27T03:29:49.664Z,63.53
2022-07-27T03:30:22.879Z,63.76
2022-07-27T03:30:56.215Z,63.66
2022-07-27T03:31:29.444Z,63.21
2022-07-27T03:32:02.849Z,62.75
2022-07-27T03:32:36.047Z,62.19
2022-07-27T03:33:09.175Z,61.70
2022-07-27T03:33:42.326Z,61.23
2022-07-27T03:34:15.559Z,60.66
2022-07-27T03:34:48.697Z,60.42
2022-07-27T03:35:21.888Z,60.17
2022-07-27T03:35:54.942Z,60.03
2022-07-27T03:36:28.000Z,59.81
2022-07-27T03:37:03.792Z,59.72
2022-07-27T03:37:36.974Z,59.51
2022-07-27T03:38:10.096Z,59.24
2022-07-27T03:38:44.688Z,59.00
2022-07-27T03:39:17.957Z,59.11
2022-07-27T03:39:51.044Z,59.56
2022-07-27T03:40:24.092Z,60.05
2022-07-27T03:40:57.215Z,60.69
2022-07-27T03:41:30.310Z,61.11
2022-07-27T03:42:04.159Z,61.76
2022-07-27T03:42:37.565Z,62.39
2022-07-27T03:43:10.630Z,63.16
2022-07-27T03:43:43.679Z,63.74
2022-07-27T03:44:16.772Z,63.96
2022-07-27T03:44:49.967Z,63.90
2022-07-27T03:45:23.219Z,63.75
2022-07-27T03:45:56.414Z,63.44
2022-07-27T03:46:29.660Z,63.06
2022-07-27T03:47:02.751Z,62.74
2022-07-27T03:47:35.858Z,62.26
2022-07-27T03:48:08.877Z,61.92
2022-07-27T03:48:41.932Z,61.56
2022-07-27T03:49:15.614Z,61.33
2022-07-27T03:49:49.220Z,61.04
2022-07-27T03:50:22.885Z,60.68
2022-07-27T03:50:56.093Z,60.28
2022-07-27T03:51:29.156Z,60.08
2022-07-27T03:52:02.378Z,59.76
2022-07-27T03:52:35.370Z,59.36
2022-07-27T03:53:09.391Z,58.87
2022-07-27T03:53:42.657Z,58.75
2022-07-27T03:54:18.065Z,58.89
2022-07-27T03:54:51.149Z,59.46
2022-07-27T03:55:24.293Z,60.13
2022-07-27T03:55:57.341Z,60.72
2022-07-27T03:56:33.430Z,61.28
2022-07-27T03:57:06.738Z,61.87
2022-07-27T03:57:39.883Z,62.47
2022-07-27T03:58:12.932Z,63.03
2022-07-27T03:58:46.600Z,63.60
2022-07-27T03:59:19.837Z,63.83
2022-07-27T03:59:52.897Z,63.84
2022-07-27T04:00:26.348Z,63.56
2022-07-27T04:00:59.577Z,63.17
2022-07-27T04:01:32.678Z,62.81
2022-07-27T04:02:06.266Z,62.36
2022-07-27T04:02:43.172Z,61.84
2022-07-27T04:03:17.629Z,61.38
2022-07-27T04:03:50.624Z,60.99
2022-07-27T04:04:23.625Z,60.62
2022-07-27T04:04:56.564Z,60.40
2022-07-27T04:05:29.779Z,59.97
2022-07-27T04:06:03.099Z,59.79
2022-07-27T04:06:36.140Z,59.44
2022-07-27T04:07:09.320Z,58.97
2022-07-27T04:07:42.454Z,58.75
2022-07-27T04:08:17.612Z,58.78
2022-07-27T04:08:52.284Z,59.14
2022-07-27T04:09:29.402Z,59.55
2022-07-27T04:10:04.903Z,60.22
2022-07-27T04:10:38.023Z,60.94
2022-07-27T04:11:11.989Z,61.55
2022-07-27T04:11:51.200Z,62.28
2022-07-27T04:12:24.769Z,62.66
2022-07-27T04:12:57.744Z,63.46
2022-07-27T04:13:31.770Z,63.72
2022-07-27T04:14:05.436Z,63.75
2022-07-27T04:14:38.496Z,63.54
2022-07-27T04:15:11.711Z,63.31
2022-07-27T04:15:44.748Z,63.06
2022-07-27T04:16:18.497Z,62.80
2022-07-27T04:16:51.789Z,62.58
2022-07-27T04:17:54.346Z,62.46
2022-07-27T04:18:18.037Z,62.40
2022-07-27T04:18:53.608Z,61.73
2022-07-27T04:19:26.836Z,61.31
2022-07-27T04:19:59.992Z,61.10
2022-07-27T04:20:33.090Z,60.73
2022-07-27T04:21:06.688Z,60.40
2022-07-27T04:21:39.842Z,60.13
2022-07-27T04:22:13.117Z,59.77
2022-07-27T04:22:46.225Z,59.55
2022-07-27T04:23:19.307Z,59.28
2022-07-27T04:23:52.427Z,59.00
2022-07-27T04:24:25.509Z,59.07
2022-07-27T04:24:58.626Z,59.41
2022-07-27T04:25:31.780Z,59.90
2022-07-27T04:26:05.543Z,60.39
2022-07-27T04:26:38.722Z,61.04
2022-07-27T04:27:11.773Z,61.79
2022-07-27T04:27:44.912Z,62.29
2022-07-27T04:28:17.926Z,63.05
2022-07-27T04:28:51.137Z,63.50
2022-07-27T04:29:24.558Z,63.86
2022-07-27T04:29:57.848Z,63.99
2022-07-27T04:30:30.961Z,63.79
2022-07-27T04:31:04.166Z,63.49
2022-07-27T04:31:37.408Z,63.19
2022-07-27T04:32:10.508Z,63.14
2022-07-27T04:32:43.593Z,62.84
2022-07-27T04:33:16.656Z,62.59
2022-07-27T04:33:49.789Z,62.47
2022-07-27T04:34:22.880Z,62.17
2022-07-27T04:34:56.062Z,62.13
2022-07-27T04:35:29.133Z,61.69
2022-07-27T04:36:02.205Z,61.63
2022-07-27T04:36:38.663Z,61.10
2022-07-27T04:37:11.673Z,60.91
2022-07-27T04:37:57.856Z,60.70
2022-07-27T04:38:32.523Z,60.80
2022-07-27T04:39:06.657Z,59.94
2022-07-27T04:39:40.266Z,60.00
2022-07-27T04:40:13.529Z,59.68
2022-07-27T04:40:47.780Z,59.65
2022-07-27T04:41:20.844Z,59.31
2022-07-27T04:41:53.898Z,59.14
2022-07-27T04:42:27.122Z,59.30
2022-07-27T04:43:02.410Z,59.85
2022-07-27T04:43:35.484Z,60.30
2022-07-27T04:44:08.729Z,61.08
2022-07-27T04:44:41.779Z,61.62
2022-07-27T04:45:14.883Z,62.42
2022-07-27T04:45:48.143Z,63.03
2022-07-27T04:46:21.365Z,63.67
2022-07-27T04:46:56.924Z,63.86
2022-07-27T04:47:29.999Z,64.22
2022-07-27T04:48:08.344Z,64.22
2022-07-27T04:48:41.932Z,63.94
2022-07-27T04:49:22.689Z,63.70
2022-07-27T04:49:56.308Z,63.63
2022-07-27T04:50:29.617Z,63.36
2022-07-27T04:51:02.684Z,63.26
2022-07-27T04:51:35.758Z,63.12
2022-07-27T04:52:08.899Z,63.13
2022-07-27T04:52:42.042Z,62.97
2022-07-27T04:53:16.596Z,62.63
2022-07-27T04:53:53.432Z,62.48
2022-07-27T04:54:31.844Z,62.19
2022-07-27T04:55:05.268Z,62.14
2022-07-27T04:55:42.570Z,61.94
2022-07-27T04:56:15.607Z,61.35
2022-07-27T04:56:52.238Z,61.22
2022-07-27T04:57:25.447Z,60.81
2022-07-27T04:57:58.557Z,60.71
2022-07-27T04:58:31.737Z,60.51
2022-07-27T04:59:04.898Z,60.32
2022-07-27T04:59:38.210Z,60.29
2022-07-27T05:00:11.769Z,60.16
2022-07-27T05:00:45.252Z,60.20
2022-07-27T05:01:18.615Z,60.01
2022-07-27T05:01:51.803Z,60.04
2022-07-27T05:02:26.652Z,59.63
2022-07-27T05:02:59.789Z,59.59
2022-07-27T05:03:32.848Z,59.41
2022-07-27T05:04:06.293Z,59.15
2022-07-27T05:04:39.868Z,59.27
2022-07-27T05:05:13.037Z,59.66
2022-07-27T05:05:50.277Z,60.24
2022-07-27T05:06:23.781Z,60.76
2022-07-27T05:06:56.868Z,61.48
2022-07-27T05:07:29.978Z,62.30
2022-07-27T05:08:03.687Z,62.74
2022-07-27T05:08:37.084Z,63.41
2022-07-27T05:09:10.493Z,63.91
2022-07-27T05:09:43.881Z,63.89
2022-07-27T05:10:20.562Z,63.18
2022-07-27T05:10:54.072Z,62.77
2022-07-27T05:11:27.197Z,61.96
2022-07-27T05:12:00.336Z,61.45
2022-07-27T05:12:33.446Z,60.83
2022-07-27T05:13:07.297Z,60.46
2022-07-27T05:13:41.503Z,60.25
2022-07-27T05:14:14.547Z,59.84
2022-07-27T05:14:47.656Z,59.56
2022-07-27T05:15:20.895Z,59.14
2022-07-27T05:15:55.914Z,58.98
2022-07-27T05:16:29.479Z,59.03
2022-07-27T05:17:02.759Z,59.33
2022-07-27T05:17:38.364Z,59.90
2022-07-27T05:18:11.426Z,60.53
2022-07-27T05:18:46.267Z,61.15
2022-07-27T05:19:19.478Z,61.83
2022-07-27T05:19:52.760Z,62.48
2022-07-27T05:20:25.882Z,62.95
2022-07-27T05:20:59.002Z,63.51
2022-07-27T05:21:32.063Z,63.84
2022-07-27T05:22:05.174Z,64.04
2022-07-27T05:22:40.106Z,63.79
2022-07-27T05:23:13.475Z,63.49
2022-07-27T05:23:46.612Z,63.14
2022-07-27T05:24:20.402Z,62.84
2022-07-27T05:24:53.483Z,62.51
2022-07-27T05:25:26.644Z,62.25
2022-07-27T05:26:00.133Z,62.04
2022-07-27T05:26:33.153Z,61.76
2022-07-27T05:27:06.908Z,61.60
2022-07-27T05:27:50.929Z,61.45
2022-07-27T05:28:28.477Z,61.37
2022-07-27T05:29:01.505Z,61.58
2022-07-27T05:29:35.302Z,61.62
2022-07-27T05:30:09.672Z,61.53
2022-07-27T05:30:46.427Z,61.57
2022-07-27T05:31:19.673Z,61.38
2022-07-27T05:31:53.009Z,61.27
2022-07-27T05:32:26.241Z,61.16
2022-07-27T05:32:59.579Z,61.19
2022-07-27T05:33:33.119Z,61.20
2022-07-27T05:34:06.157Z,60.92
2022-07-27T05:34:39.230Z,60.67
2022-07-27T05:35:12.744Z,60.32
2022-07-27T05:35:45.855Z,60.22
2022-07-27T05:36:18.957Z,60.03
2022-07-27T05:36:52.151Z,59.96
2022-07-27T05:37:25.294Z,60.06
2022-07-27T05:37:58.373Z,59.84
2022-07-27T05:38:32.469Z,59.66
2022-07-27T05:39:08.182Z,59.66
2022-07-27T05:39:44.860Z,59.65
2022-07-27T05:40:17.906Z,59.56
2022-07-27T05:40:51.188Z,59.58
2022-07-27T05:41:25.578Z,59.32
2022-07-27T05:41:58.820Z,59.19
2022-07-27T05:42:31.970Z,59.05
2022-07-27T05:43:05.326Z,58.96
2022-07-27T05:43:38.449Z,59.37
2022-07-27T05:44:11.645Z,59.84
2022-07-27T05:44:44.842Z,60.39
2022-07-27T05:45:18.060Z,61.23
2022-07-27T05:45:51.265Z,61.72
2022-07-27T05:46:25.634Z,62.22
2022-07-27T05:47:00.638Z,62.54
2022-07-27T05:47:33.998Z,63.11
2022-07-27T05:48:07.227Z,63.24
2022-07-27T05:48:40.740Z,63.12
2022-07-27T05:49:15.012Z,62.99
2022-07-27T05:49:48.859Z,62.72
2022-07-27T05:50:22.121Z,62.22
2022-07-27T05:50:55.265Z,61.54
2022-07-27T05:51:28.757Z,61.07
2022-07-27T05:52:02.047Z,60.81
2022-07-27T05:52:35.200Z,60.48
2022-07-27T05:53:09.065Z,60.19
2022-07-27T05:53:42.441Z,59.89
2022-07-27T05:54:15.661Z,59.90
2022-07-27T05:54:48.767Z,59.71
2022-07-27T05:55:22.077Z,59.61
2022-07-27T05:55:59.170Z,59.45
2022-07-27T05:56:32.816Z,59.30
2022-07-27T05:57:06.047Z,58.94
2022-07-27T05:57:41.346Z,58.82
2022-07-27T05:58:14.471Z,59.10
2022-07-27T05:58:47.528Z,59.61
2022-07-27T05:59:20.622Z,59.64
2022-07-27T05:59:55.299Z,60.19
2022-07-27T06:00:28.435Z,60.91
2022-07-27T06:01:01.675Z,61.33
2022-07-27T06:01:35.019Z,61.82
2022-07-27T06:02:09.342Z,62.44
2022-07-27T06:02:42.663Z,62.81
2022-07-27T06:03:15.752Z,63.19
2022-07-27T06:03:48.991Z,63.38
2022-07-27T06:04:22.157Z,63.22
2022-07-27T06:04:55.241Z,62.53
2022-07-27T06:05:29.746Z,62.05
2022-07-27T06:06:21.616Z,61.93
2022-07-27T06:07:13.304Z,62.00
2022-07-27T06:08:09.164Z,60.99
2022-07-27T06:08:42.348Z,60.54
2022-07-27T06:09:15.616Z,59.26
2022-07-27T06:09:48.747Z,58.95
2022-07-27T06:10:21.840Z,58.59
2022-07-27T06:10:54.822Z,58.38
2022-07-27T06:11:27.887Z,58.50
2022-07-27T06:12:01.089Z,58.65
2022-07-27T06:12:42.252Z,59.23
2022-07-27T06:13:15.341Z,59.79
2022-07-27T06:13:48.358Z,60.65
2022-07-27T06:14:21.372Z,61.16
2022-07-27T06:14:54.472Z,61.78
2022-07-27T06:15:27.689Z,62.42
2022-07-27T06:16:00.822Z,62.87
2022-07-27T06:16:34.550Z,63.37
2022-07-27T06:17:07.981Z,63.71
2022-07-27T06:17:41.461Z,63.60
2022-07-27T06:18:18.412Z,62.97
2022-07-27T06:18:52.770Z,62.20
2022-07-27T06:19:25.929Z,61.51
2022-07-27T06:20:10.446Z,60.97
2022-07-27T06:20:43.685Z,59.78
2022-07-27T06:21:17.150Z,59.19
2022-07-27T06:21:53.803Z,58.74
2022-07-27T06:22:27.688Z,58.52
2022-07-27T06:23:07.569Z,58.68
2022-07-27T06:23:41.435Z,58.78
2022-07-27T06:24:14.920Z,59.48
2022-07-27T06:24:48.031Z,59.92
2022-07-27T06:25:22.545Z,60.80
2022-07-27T06:25:57.781Z,61.45
2022-07-27T06:26:30.894Z,62.19
2022-07-27T06:27:04.125Z,62.69
2022-07-27T06:27:38.084Z,62.85
2022-07-27T06:28:11.238Z,62.98
2022-07-27T06:28:44.470Z,62.64
2022-07-27T06:29:17.659Z,62.13
2022-07-27T06:29:50.802Z,61.68
2022-07-27T06:30:23.951Z,61.19
2022-07-27T06:30:57.060Z,60.67
2022-07-27T06:31:35.604Z,60.13
2022-07-27T06:32:09.071Z,59.59
2022-07-27T06:32:43.980Z,58.83
2022-07-27T06:33:17.047Z,58.18
2022-07-27T06:33:52.233Z,57.93
2022-07-27T06:34:25.647Z,57.99
2022-07-27T06:35:00.405Z,58.65
2022-07-27T06:35:34.441Z,59.29
2022-07-27T06:36:11.138Z,59.94
2022-07-27T06:36:45.418Z,60.63
2022-07-27T06:37:18.712Z,61.05
2022-07-27T06:37:53.397Z,61.60
2022-07-27T06:38:27.780Z,61.73
2022-07-27T06:39:01.941Z,62.37
2022-07-27T06:39:35.093Z,63.10
2022-07-27T06:40:08.699Z,63.67
2022-07-27T06:40:41.766Z,63.83
2022-07-27T06:41:15.700Z,63.47
2022-07-27T06:41:49.235Z,62.94
2022-07-27T06:42:22.330Z,62.42
2022-07-27T06:42:55.422Z,61.91
2022-07-27T06:43:32.099Z,61.49
2022-07-27T06:44:05.791Z,61.19
2022-07-27T06:44:38.866Z,60.29
2022-07-27T06:45:12.953Z,59.76
2022-07-27T06:45:46.155Z,59.18
2022-07-27T06:46:19.325Z,58.36
2022-07-27T06:46:52.782Z,58.20
2022-07-27T06:47:28.762Z,58.26
2022-07-27T06:48:02.191Z,58.65
2022-07-27T06:48:35.389Z,59.17
2022-07-27T06:49:09.296Z,59.82
2022-07-27T06:49:42.628Z,60.41
2022-07-27T06:50:15.820Z,61.18
2022-07-27T06:50:49.617Z,61.67
2022-07-27T06:51:23.912Z,62.18
2022-07-27T06:51:57.146Z,62.34
2022-07-27T06:52:30.469Z,63.00
2022-07-27T06:53:03.934Z,63.32
2022-07-27T06:53:37.317Z,63.14
2022-07-27T06:54:11.533Z,62.60
2022-07-27T06:54:45.277Z,62.04
2022-07-27T06:55:18.411Z,61.29
2022-07-27T06:55:51.575Z,60.48
2022-07-27T06:56:25.010Z,59.72
2022-07-27T06:56:58.076Z,58.89
2022-07-27T06:57:31.329Z,58.14
2022-07-27T06:58:04.970Z,57.98
2022-07-27T06:58:38.082Z,57.79
2022-07-27T06:59:11.456Z,57.90
2022-07-27T06:59:44.816Z,58.42
2022-07-27T07:00:18.076Z,59.11
2022-07-27T07:00:51.611Z,59.74
2022-07-27T07:01:24.990Z,60.34
2022-07-27T07:01:58.193Z,60.81
2022-07-27T07:02:31.254Z,61.14
2022-07-27T07:03:05.721Z,61.53
2022-07-27T07:03:38.927Z,61.86
2022-07-27T07:04:12.134Z,62.35
2022-07-27T07:04:45.701Z,62.53
2022-07-27T07:05:19.012Z,63.02
2022-07-27T07:05:52.104Z,63.06
2022-07-27T07:06:25.191Z,62.58
2022-07-27T07:07:05.294Z,61.96
2022-07-27T07:07:40.563Z,61.26
2022-07-27T07:08:14.982Z,60.38
2022-07-27T07:08:48.133Z,59.72
2022-07-27T07:09:22.405Z,58.33
2022-07-27T07:09:55.648Z,57.85
2022-07-27T07:10:28.828Z,57.30
2022-07-27T07:11:02.458Z,57.27
2022-07-27T07:11:35.759Z,57.80
2022-07-27T07:12:08.921Z,58.21
2022-07-27T07:12:42.137Z,58.58
2022-07-27T07:13:16.121Z,58.67
2022-07-27T07:13:49.195Z,59.38
2022-07-27T07:14:23.002Z,60.07
2022-07-27T07:14:56.228Z,60.68
2022-07-27T07:15:29.321Z,61.30
2022-07-27T07:16:02.577Z,61.77
2022-07-27T07:16:36.320Z,62.03
2022-07-27T07:17:09.414Z,61.98
2022-07-27T07:17:43.038Z,62.15
2022-07-27T07:18:16.265Z,62.60
2022-07-27T07:18:52.407Z,63.17